<?xml version="1.0" encoding="UTF-8" standalone="no" ?>
<gpx xmlns="http://www.topografix.com/GPX/1/1" xmlns:xsi="http://www.w3.org/2001/XMLSchema-instance" xsi:schemaLocation="http://www.topografix.com/GPX/1/1 http://www.topografix.com/GPX/1/1/gpx.xsd" version="1.1" creator="VisuGPX - https://www.visugpx.com">
  <metadata>
    <name>Road-trip Fozano-Burgo-Propriano</name>
    <desc><![CDATA[Mélange auto et pédestre ]]></desc>
  </metadata>
  <trk>
    <name><![CDATA[Road-trip Fozano-Burgo-Propriano_1]]></name>
    <trkseg>
      <trkpt lat="41.69695" lon="9.00176">
        <ele>398.4</ele>
        <time>2024-08-03T13:03:36Z</time>
      </trkpt>
      <trkpt lat="41.69695" lon="9.00176">
        <ele>397.4</ele>
        <time>2024-08-03T13:03:44Z</time>
      </trkpt>
      <trkpt lat="41.69694" lon="9.00176">
        <ele>397.4</ele>
        <time>2024-08-03T13:03:50Z</time>
      </trkpt>
      <trkpt lat="41.69694" lon="9.00176">
        <ele>398</ele>
        <time>2024-08-03T13:04:08Z</time>
      </trkpt>
      <trkpt lat="41.69694" lon="9.00176">
        <ele>398.4</ele>
        <time>2024-08-03T13:04:17Z</time>
      </trkpt>
      <trkpt lat="41.69692" lon="9.00176">
        <ele>398.6</ele>
        <time>2024-08-03T13:04:22Z</time>
      </trkpt>
      <trkpt lat="41.6969" lon="9.00178">
        <ele>399</ele>
        <time>2024-08-03T13:04:39Z</time>
      </trkpt>
      <trkpt lat="41.69697" lon="9.0018">
        <ele>399</ele>
        <time>2024-08-03T13:04:51Z</time>
      </trkpt>
      <trkpt lat="41.69698" lon="9.0018">
        <ele>399.2</ele>
        <time>2024-08-03T13:04:52Z</time>
      </trkpt>
      <trkpt lat="41.69701" lon="9.0018">
        <ele>399.2</ele>
        <time>2024-08-03T13:04:54Z</time>
      </trkpt>
      <trkpt lat="41.69703" lon="9.0018">
        <ele>399.4</ele>
        <time>2024-08-03T13:04:56Z</time>
      </trkpt>
      <trkpt lat="41.69709" lon="9.00184">
        <ele>399.2</ele>
        <time>2024-08-03T13:05:04Z</time>
      </trkpt>
      <trkpt lat="41.69711" lon="9.00185">
        <ele>399.6</ele>
        <time>2024-08-03T13:05:07Z</time>
      </trkpt>
      <trkpt lat="41.69723" lon="9.00189">
        <ele>399.8</ele>
        <time>2024-08-03T13:05:20Z</time>
      </trkpt>
      <trkpt lat="41.69725" lon="9.00188">
        <ele>400</ele>
        <time>2024-08-03T13:05:23Z</time>
      </trkpt>
      <trkpt lat="41.69731" lon="9.00185">
        <ele>400.4</ele>
        <time>2024-08-03T13:05:33Z</time>
      </trkpt>
      <trkpt lat="41.69738" lon="9.0018">
        <ele>400.2</ele>
        <time>2024-08-03T13:05:48Z</time>
      </trkpt>
      <trkpt lat="41.69739" lon="9.00176">
        <ele>400.6</ele>
        <time>2024-08-03T13:06:01Z</time>
      </trkpt>
      <trkpt lat="41.6974" lon="9.00176">
        <ele>400.8</ele>
        <time>2024-08-03T13:06:06Z</time>
      </trkpt>
      <trkpt lat="41.6974" lon="9.00177">
        <ele>400.8</ele>
        <time>2024-08-03T13:06:23Z</time>
      </trkpt>
      <trkpt lat="41.69742" lon="9.00178">
        <ele>399.6</ele>
        <time>2024-08-03T13:06:42Z</time>
      </trkpt>
      <trkpt lat="41.69743" lon="9.0018">
        <ele>399.4</ele>
        <time>2024-08-03T13:06:46Z</time>
      </trkpt>
      <trkpt lat="41.69745" lon="9.00181">
        <ele>399.4</ele>
        <time>2024-08-03T13:06:49Z</time>
      </trkpt>
      <trkpt lat="41.69749" lon="9.00179">
        <ele>399.6</ele>
        <time>2024-08-03T13:06:52Z</time>
      </trkpt>
      <trkpt lat="41.69752" lon="9.00177">
        <ele>399.8</ele>
        <time>2024-08-03T13:06:55Z</time>
      </trkpt>
      <trkpt lat="41.69754" lon="9.00176">
        <ele>399.8</ele>
        <time>2024-08-03T13:06:57Z</time>
      </trkpt>
      <trkpt lat="41.69754" lon="9.00175">
        <ele>399.8</ele>
        <time>2024-08-03T13:06:58Z</time>
      </trkpt>
      <trkpt lat="41.69756" lon="9.00171">
        <ele>400</ele>
        <time>2024-08-03T13:07:02Z</time>
      </trkpt>
      <trkpt lat="41.69759" lon="9.00165">
        <ele>400</ele>
        <time>2024-08-03T13:07:09Z</time>
      </trkpt>
      <trkpt lat="41.69764" lon="9.00163">
        <ele>400.6</ele>
        <time>2024-08-03T13:07:18Z</time>
      </trkpt>
      <trkpt lat="41.69767" lon="9.00164">
        <ele>400.4</ele>
        <time>2024-08-03T13:07:21Z</time>
      </trkpt>
      <trkpt lat="41.69767" lon="9.00164">
        <ele>400.2</ele>
        <time>2024-08-03T13:07:22Z</time>
      </trkpt>
      <trkpt lat="41.69767" lon="9.00158">
        <ele>400.6</ele>
        <time>2024-08-03T13:07:32Z</time>
      </trkpt>
      <trkpt lat="41.69767" lon="9.00158">
        <ele>400.8</ele>
        <time>2024-08-03T13:07:33Z</time>
      </trkpt>
      <trkpt lat="41.69768" lon="9.00155">
        <ele>400.8</ele>
        <time>2024-08-03T13:07:45Z</time>
      </trkpt>
      <trkpt lat="41.69768" lon="9.00148">
        <ele>399.6</ele>
        <time>2024-08-03T13:08:01Z</time>
      </trkpt>
      <trkpt lat="41.69767" lon="9.00148">
        <ele>399.6</ele>
        <time>2024-08-03T13:08:02Z</time>
      </trkpt>
      <trkpt lat="41.69766" lon="9.00144">
        <ele>400</ele>
        <time>2024-08-03T13:08:12Z</time>
      </trkpt>
      <trkpt lat="41.69774" lon="9.00145">
        <ele>399.2</ele>
        <time>2024-08-03T13:08:26Z</time>
      </trkpt>
      <trkpt lat="41.6978" lon="9.0014">
        <ele>399.2</ele>
        <time>2024-08-03T13:08:41Z</time>
      </trkpt>
      <trkpt lat="41.6979" lon="9.00138">
        <ele>399</ele>
        <time>2024-08-03T13:08:53Z</time>
      </trkpt>
      <trkpt lat="41.69789" lon="9.00139">
        <ele>399</ele>
        <time>2024-08-03T13:08:54Z</time>
      </trkpt>
      <trkpt lat="41.69789" lon="9.00138">
        <ele>399.2</ele>
        <time>2024-08-03T13:08:56Z</time>
      </trkpt>
      <trkpt lat="41.6979" lon="9.0014">
        <ele>399.6</ele>
        <time>2024-08-03T13:09:04Z</time>
      </trkpt>
      <trkpt lat="41.69796" lon="9.00139">
        <ele>400.4</ele>
        <time>2024-08-03T13:09:17Z</time>
      </trkpt>
      <trkpt lat="41.69796" lon="9.0014">
        <ele>400.6</ele>
        <time>2024-08-03T13:09:21Z</time>
      </trkpt>
      <trkpt lat="41.69796" lon="9.00146">
        <ele>400</ele>
        <time>2024-08-03T13:09:30Z</time>
      </trkpt>
      <trkpt lat="41.69797" lon="9.00152">
        <ele>400.6</ele>
        <time>2024-08-03T13:09:45Z</time>
      </trkpt>
      <trkpt lat="41.698" lon="9.00154">
        <ele>400.2</ele>
        <time>2024-08-03T13:09:52Z</time>
      </trkpt>
      <trkpt lat="41.69802" lon="9.00155">
        <ele>400.2</ele>
        <time>2024-08-03T13:09:55Z</time>
      </trkpt>
      <trkpt lat="41.69805" lon="9.00157">
        <ele>400.2</ele>
        <time>2024-08-03T13:10:01Z</time>
      </trkpt>
      <trkpt lat="41.69807" lon="9.00158">
        <ele>400.2</ele>
        <time>2024-08-03T13:10:05Z</time>
      </trkpt>
      <trkpt lat="41.69808" lon="9.00158">
        <ele>400.2</ele>
        <time>2024-08-03T13:10:08Z</time>
      </trkpt>
      <trkpt lat="41.6981" lon="9.0016">
        <ele>399.8</ele>
        <time>2024-08-03T13:10:19Z</time>
      </trkpt>
      <trkpt lat="41.69812" lon="9.00163">
        <ele>399.8</ele>
        <time>2024-08-03T13:10:22Z</time>
      </trkpt>
      <trkpt lat="41.69818" lon="9.00171">
        <ele>400.2</ele>
        <time>2024-08-03T13:10:32Z</time>
      </trkpt>
      <trkpt lat="41.69821" lon="9.00181">
        <ele>400</ele>
        <time>2024-08-03T13:10:48Z</time>
      </trkpt>
      <trkpt lat="41.69822" lon="9.00187">
        <ele>400.2</ele>
        <time>2024-08-03T13:11:06Z</time>
      </trkpt>
      <trkpt lat="41.69829" lon="9.00195">
        <ele>400.4</ele>
        <time>2024-08-03T13:11:16Z</time>
      </trkpt>
      <trkpt lat="41.69829" lon="9.00196">
        <ele>400.4</ele>
        <time>2024-08-03T13:11:22Z</time>
      </trkpt>
      <trkpt lat="41.69834" lon="9.00198">
        <ele>400.8</ele>
        <time>2024-08-03T13:11:32Z</time>
      </trkpt>
      <trkpt lat="41.69837" lon="9.00196">
        <ele>400.8</ele>
        <time>2024-08-03T13:11:43Z</time>
      </trkpt>
      <trkpt lat="41.69838" lon="9.00194">
        <ele>401.8</ele>
        <time>2024-08-03T13:11:50Z</time>
      </trkpt>
      <trkpt lat="41.69837" lon="9.00194">
        <ele>400.8</ele>
        <time>2024-08-03T13:11:54Z</time>
      </trkpt>
      <trkpt lat="41.69836" lon="9.00194">
        <ele>400.8</ele>
        <time>2024-08-03T13:11:57Z</time>
      </trkpt>
      <trkpt lat="41.69839" lon="9.002">
        <ele>401.2</ele>
        <time>2024-08-03T13:12:11Z</time>
      </trkpt>
      <trkpt lat="41.69843" lon="9.00206">
        <ele>401.4</ele>
        <time>2024-08-03T13:12:19Z</time>
      </trkpt>
      <trkpt lat="41.69846" lon="9.0021">
        <ele>401.6</ele>
        <time>2024-08-03T13:12:24Z</time>
      </trkpt>
      <trkpt lat="41.69847" lon="9.00211">
        <ele>401.8</ele>
        <time>2024-08-03T13:12:27Z</time>
      </trkpt>
      <trkpt lat="41.69847" lon="9.00214">
        <ele>402</ele>
        <time>2024-08-03T13:12:35Z</time>
      </trkpt>
      <trkpt lat="41.69852" lon="9.00221">
        <ele>402.2</ele>
        <time>2024-08-03T13:12:46Z</time>
      </trkpt>
      <trkpt lat="41.69853" lon="9.00221">
        <ele>402.2</ele>
        <time>2024-08-03T13:12:47Z</time>
      </trkpt>
      <trkpt lat="41.69854" lon="9.00222">
        <ele>402.2</ele>
        <time>2024-08-03T13:12:49Z</time>
      </trkpt>
      <trkpt lat="41.69859" lon="9.00222">
        <ele>401.8</ele>
        <time>2024-08-03T13:13:00Z</time>
      </trkpt>
      <trkpt lat="41.69856" lon="9.00233">
        <ele>402</ele>
        <time>2024-08-03T13:13:15Z</time>
      </trkpt>
      <trkpt lat="41.69858" lon="9.00237">
        <ele>402</ele>
        <time>2024-08-03T13:13:21Z</time>
      </trkpt>
      <trkpt lat="41.69862" lon="9.00241">
        <ele>402.4</ele>
        <time>2024-08-03T13:13:27Z</time>
      </trkpt>
      <trkpt lat="41.69873" lon="9.0025">
        <ele>402.8</ele>
        <time>2024-08-03T13:13:43Z</time>
      </trkpt>
      <trkpt lat="41.69877" lon="9.0025">
        <ele>403</ele>
        <time>2024-08-03T13:13:48Z</time>
      </trkpt>
      <trkpt lat="41.69878" lon="9.0025">
        <ele>403</ele>
        <time>2024-08-03T13:13:49Z</time>
      </trkpt>
      <trkpt lat="41.69883" lon="9.00249">
        <ele>403.2</ele>
        <time>2024-08-03T13:13:53Z</time>
      </trkpt>
      <trkpt lat="41.6989" lon="9.00241">
        <ele>404</ele>
        <time>2024-08-03T13:14:04Z</time>
      </trkpt>
      <trkpt lat="41.69893" lon="9.00238">
        <ele>404</ele>
        <time>2024-08-03T13:14:07Z</time>
      </trkpt>
      <trkpt lat="41.69898" lon="9.00229">
        <ele>404</ele>
        <time>2024-08-03T13:14:18Z</time>
      </trkpt>
      <trkpt lat="41.69907" lon="9.00222">
        <ele>404.6</ele>
        <time>2024-08-03T13:14:31Z</time>
      </trkpt>
      <trkpt lat="41.69911" lon="9.00218">
        <ele>404.8</ele>
        <time>2024-08-03T13:14:38Z</time>
      </trkpt>
      <trkpt lat="41.69911" lon="9.00218">
        <ele>404.6</ele>
        <time>2024-08-03T13:14:43Z</time>
      </trkpt>
      <trkpt lat="41.69911" lon="9.00217">
        <ele>405.2</ele>
        <time>2024-08-03T13:14:46Z</time>
      </trkpt>
      <trkpt lat="41.69916" lon="9.00218">
        <ele>405</ele>
        <time>2024-08-03T13:14:55Z</time>
      </trkpt>
      <trkpt lat="41.6992" lon="9.00221">
        <ele>405.2</ele>
        <time>2024-08-03T13:15:01Z</time>
      </trkpt>
      <trkpt lat="41.69925" lon="9.00222">
        <ele>406</ele>
        <time>2024-08-03T13:15:09Z</time>
      </trkpt>
      <trkpt lat="41.69935" lon="9.00219">
        <ele>405.8</ele>
        <time>2024-08-03T13:15:21Z</time>
      </trkpt>
      <trkpt lat="41.69937" lon="9.0022">
        <ele>406</ele>
        <time>2024-08-03T13:15:23Z</time>
      </trkpt>
      <trkpt lat="41.69938" lon="9.00228">
        <ele>406.4</ele>
        <time>2024-08-03T13:15:27Z</time>
      </trkpt>
      <trkpt lat="41.69943" lon="9.0023">
        <ele>406.4</ele>
        <time>2024-08-03T13:15:33Z</time>
      </trkpt>
      <trkpt lat="41.69944" lon="9.0023">
        <ele>406.4</ele>
        <time>2024-08-03T13:15:36Z</time>
      </trkpt>
      <trkpt lat="41.69946" lon="9.00228">
        <ele>407.2</ele>
        <time>2024-08-03T13:15:45Z</time>
      </trkpt>
      <trkpt lat="41.69947" lon="9.00228">
        <ele>406.8</ele>
        <time>2024-08-03T13:15:56Z</time>
      </trkpt>
      <trkpt lat="41.69944" lon="9.00228">
        <ele>406.6</ele>
        <time>2024-08-03T13:16:03Z</time>
      </trkpt>
      <trkpt lat="41.69942" lon="9.00228">
        <ele>406.6</ele>
        <time>2024-08-03T13:16:05Z</time>
      </trkpt>
      <trkpt lat="41.69936" lon="9.00222">
        <ele>405.8</ele>
        <time>2024-08-03T13:16:18Z</time>
      </trkpt>
      <trkpt lat="41.69931" lon="9.00223">
        <ele>405.8</ele>
        <time>2024-08-03T13:16:31Z</time>
      </trkpt>
      <trkpt lat="41.69926" lon="9.0022">
        <ele>405.2</ele>
        <time>2024-08-03T13:16:38Z</time>
      </trkpt>
      <trkpt lat="41.69921" lon="9.00218">
        <ele>405</ele>
        <time>2024-08-03T13:16:44Z</time>
      </trkpt>
      <trkpt lat="41.69918" lon="9.00217">
        <ele>405</ele>
        <time>2024-08-03T13:16:47Z</time>
      </trkpt>
      <trkpt lat="41.69907" lon="9.0022">
        <ele>404.8</ele>
        <time>2024-08-03T13:16:57Z</time>
      </trkpt>
      <trkpt lat="41.69904" lon="9.00222">
        <ele>404.8</ele>
        <time>2024-08-03T13:17:02Z</time>
      </trkpt>
      <trkpt lat="41.69904" lon="9.00222">
        <ele>404.8</ele>
        <time>2024-08-03T13:17:07Z</time>
      </trkpt>
      <trkpt lat="41.69897" lon="9.00229">
        <ele>404.6</ele>
        <time>2024-08-03T13:17:18Z</time>
      </trkpt>
      <trkpt lat="41.69888" lon="9.00239">
        <ele>404.2</ele>
        <time>2024-08-03T13:17:31Z</time>
      </trkpt>
      <trkpt lat="41.69886" lon="9.00241">
        <ele>404.2</ele>
        <time>2024-08-03T13:17:33Z</time>
      </trkpt>
      <trkpt lat="41.69878" lon="9.00248">
        <ele>403.2</ele>
        <time>2024-08-03T13:17:48Z</time>
      </trkpt>
      <trkpt lat="41.6987" lon="9.00253">
        <ele>402.8</ele>
        <time>2024-08-03T13:18:00Z</time>
      </trkpt>
      <trkpt lat="41.69865" lon="9.00241">
        <ele>402.4</ele>
        <time>2024-08-03T13:18:11Z</time>
      </trkpt>
      <trkpt lat="41.69865" lon="9.0024">
        <ele>402.4</ele>
        <time>2024-08-03T13:18:12Z</time>
      </trkpt>
      <trkpt lat="41.69864" lon="9.00234">
        <ele>402.2</ele>
        <time>2024-08-03T13:18:17Z</time>
      </trkpt>
      <trkpt lat="41.69862" lon="9.00226">
        <ele>402.2</ele>
        <time>2024-08-03T13:18:24Z</time>
      </trkpt>
      <trkpt lat="41.69861" lon="9.00221">
        <ele>402.2</ele>
        <time>2024-08-03T13:18:32Z</time>
      </trkpt>
      <trkpt lat="41.69859" lon="9.00219">
        <ele>402.4</ele>
        <time>2024-08-03T13:18:36Z</time>
      </trkpt>
      <trkpt lat="41.69855" lon="9.00215">
        <ele>402.4</ele>
        <time>2024-08-03T13:18:49Z</time>
      </trkpt>
      <trkpt lat="41.69859" lon="9.00212">
        <ele>402.2</ele>
        <time>2024-08-03T13:19:01Z</time>
      </trkpt>
      <trkpt lat="41.69851" lon="9.00207">
        <ele>401.8</ele>
        <time>2024-08-03T13:19:13Z</time>
      </trkpt>
      <trkpt lat="41.69846" lon="9.00203">
        <ele>401.6</ele>
        <time>2024-08-03T13:19:23Z</time>
      </trkpt>
      <trkpt lat="41.69842" lon="9.00191">
        <ele>401.2</ele>
        <time>2024-08-03T13:19:35Z</time>
      </trkpt>
      <trkpt lat="41.69843" lon="9.00186">
        <ele>401.2</ele>
        <time>2024-08-03T13:19:46Z</time>
      </trkpt>
      <trkpt lat="41.69843" lon="9.00186">
        <ele>401.2</ele>
        <time>2024-08-03T13:19:47Z</time>
      </trkpt>
      <trkpt lat="41.69841" lon="9.00184">
        <ele>401.4</ele>
        <time>2024-08-03T13:19:58Z</time>
      </trkpt>
      <trkpt lat="41.69837" lon="9.0018">
        <ele>400.8</ele>
        <time>2024-08-03T13:20:03Z</time>
      </trkpt>
      <trkpt lat="41.69832" lon="9.00172">
        <ele>400.2</ele>
        <time>2024-08-03T13:20:11Z</time>
      </trkpt>
      <trkpt lat="41.69829" lon="9.0017">
        <ele>400.2</ele>
        <time>2024-08-03T13:20:14Z</time>
      </trkpt>
      <trkpt lat="41.69828" lon="9.00169">
        <ele>400</ele>
        <time>2024-08-03T13:20:15Z</time>
      </trkpt>
      <trkpt lat="41.69821" lon="9.00162">
        <ele>399.6</ele>
        <time>2024-08-03T13:20:23Z</time>
      </trkpt>
      <trkpt lat="41.69812" lon="9.00154">
        <ele>399.4</ele>
        <time>2024-08-03T13:20:36Z</time>
      </trkpt>
      <trkpt lat="41.69806" lon="9.00145">
        <ele>399.2</ele>
        <time>2024-08-03T13:20:48Z</time>
      </trkpt>
      <trkpt lat="41.69804" lon="9.00144">
        <ele>398.8</ele>
        <time>2024-08-03T13:20:51Z</time>
      </trkpt>
      <trkpt lat="41.69799" lon="9.00143">
        <ele>397.8</ele>
        <time>2024-08-03T13:20:58Z</time>
      </trkpt>
      <trkpt lat="41.69797" lon="9.00144">
        <ele>397.2</ele>
        <time>2024-08-03T13:21:02Z</time>
      </trkpt>
      <trkpt lat="41.69797" lon="9.00144">
        <ele>397.2</ele>
        <time>2024-08-03T13:21:17Z</time>
      </trkpt>
      <trkpt lat="41.69797" lon="9.00143">
        <ele>396.6</ele>
        <time>2024-08-03T13:21:19Z</time>
      </trkpt>
      <trkpt lat="41.69797" lon="9.00143">
        <ele>397.6</ele>
        <time>2024-08-03T13:21:20Z</time>
      </trkpt>
      <trkpt lat="41.698" lon="9.00142">
        <ele>397</ele>
        <time>2024-08-03T13:21:30Z</time>
      </trkpt>
      <trkpt lat="41.69802" lon="9.0014">
        <ele>396.6</ele>
        <time>2024-08-03T13:21:33Z</time>
      </trkpt>
      <trkpt lat="41.69807" lon="9.00138">
        <ele>396.2</ele>
        <time>2024-08-03T13:21:42Z</time>
      </trkpt>
      <trkpt lat="41.6981" lon="9.00142">
        <ele>395.6</ele>
        <time>2024-08-03T13:21:50Z</time>
      </trkpt>
      <trkpt lat="41.69813" lon="9.00144">
        <ele>395</ele>
        <time>2024-08-03T13:21:55Z</time>
      </trkpt>
      <trkpt lat="41.69815" lon="9.00146">
        <ele>394.4</ele>
        <time>2024-08-03T13:21:59Z</time>
      </trkpt>
      <trkpt lat="41.69819" lon="9.00145">
        <ele>393.4</ele>
        <time>2024-08-03T13:22:07Z</time>
      </trkpt>
      <trkpt lat="41.69819" lon="9.00146">
        <ele>392.6</ele>
        <time>2024-08-03T13:22:12Z</time>
      </trkpt>
      <trkpt lat="41.69819" lon="9.00147">
        <ele>392.4</ele>
        <time>2024-08-03T13:22:13Z</time>
      </trkpt>
      <trkpt lat="41.69818" lon="9.00146">
        <ele>392.2</ele>
        <time>2024-08-03T13:22:25Z</time>
      </trkpt>
      <trkpt lat="41.69819" lon="9.0014">
        <ele>391.4</ele>
        <time>2024-08-03T13:22:35Z</time>
      </trkpt>
      <trkpt lat="41.69821" lon="9.00138">
        <ele>391.2</ele>
        <time>2024-08-03T13:22:38Z</time>
      </trkpt>
      <trkpt lat="41.69826" lon="9.0014">
        <ele>390.8</ele>
        <time>2024-08-03T13:22:44Z</time>
      </trkpt>
      <trkpt lat="41.69829" lon="9.00143">
        <ele>390.6</ele>
        <time>2024-08-03T13:22:47Z</time>
      </trkpt>
      <trkpt lat="41.69833" lon="9.0015">
        <ele>390.4</ele>
        <time>2024-08-03T13:22:55Z</time>
      </trkpt>
      <trkpt lat="41.69836" lon="9.00157">
        <ele>389.2</ele>
        <time>2024-08-03T13:23:02Z</time>
      </trkpt>
      <trkpt lat="41.69836" lon="9.00157">
        <ele>389.2</ele>
        <time>2024-08-03T13:23:03Z</time>
      </trkpt>
      <trkpt lat="41.69838" lon="9.00149">
        <ele>389.2</ele>
        <time>2024-08-03T13:23:10Z</time>
      </trkpt>
      <trkpt lat="41.69836" lon="9.00145">
        <ele>389.2</ele>
        <time>2024-08-03T13:23:14Z</time>
      </trkpt>
      <trkpt lat="41.69834" lon="9.00139">
        <ele>388.8</ele>
        <time>2024-08-03T13:23:20Z</time>
      </trkpt>
      <trkpt lat="41.69834" lon="9.00137">
        <ele>388.8</ele>
        <time>2024-08-03T13:23:22Z</time>
      </trkpt>
      <trkpt lat="41.69834" lon="9.00136">
        <ele>388.8</ele>
        <time>2024-08-03T13:23:23Z</time>
      </trkpt>
      <trkpt lat="41.69834" lon="9.00135">
        <ele>388.8</ele>
        <time>2024-08-03T13:23:24Z</time>
      </trkpt>
      <trkpt lat="41.69834" lon="9.00134">
        <ele>389</ele>
        <time>2024-08-03T13:23:33Z</time>
      </trkpt>
      <trkpt lat="41.69833" lon="9.00132">
        <ele>389</ele>
        <time>2024-08-03T13:23:48Z</time>
      </trkpt>
      <trkpt lat="41.6983" lon="9.00119">
        <ele>388.8</ele>
        <time>2024-08-03T13:24:01Z</time>
      </trkpt>
      <trkpt lat="41.69829" lon="9.00115">
        <ele>388.8</ele>
        <time>2024-08-03T13:24:05Z</time>
      </trkpt>
      <trkpt lat="41.69829" lon="9.00112">
        <ele>388.6</ele>
        <time>2024-08-03T13:24:07Z</time>
      </trkpt>
      <trkpt lat="41.69827" lon="9.00104">
        <ele>388.8</ele>
        <time>2024-08-03T13:24:14Z</time>
      </trkpt>
      <trkpt lat="41.69827" lon="9.00104">
        <ele>388.8</ele>
        <time>2024-08-03T13:24:15Z</time>
      </trkpt>
      <trkpt lat="41.69829" lon="9.00101">
        <ele>388.2</ele>
        <time>2024-08-03T13:24:19Z</time>
      </trkpt>
      <trkpt lat="41.6983" lon="9.00096">
        <ele>388.2</ele>
        <time>2024-08-03T13:24:25Z</time>
      </trkpt>
      <trkpt lat="41.6983" lon="9.00093">
        <ele>388.2</ele>
        <time>2024-08-03T13:24:27Z</time>
      </trkpt>
      <trkpt lat="41.6983" lon="9.00079">
        <ele>387.6</ele>
        <time>2024-08-03T13:24:38Z</time>
      </trkpt>
      <trkpt lat="41.69831" lon="9.00073">
        <ele>387.6</ele>
        <time>2024-08-03T13:24:45Z</time>
      </trkpt>
      <trkpt lat="41.6983" lon="9.0007">
        <ele>387.6</ele>
        <time>2024-08-03T13:24:49Z</time>
      </trkpt>
      <trkpt lat="41.69829" lon="9.00061">
        <ele>387.2</ele>
        <time>2024-08-03T13:25:02Z</time>
      </trkpt>
      <trkpt lat="41.69829" lon="9.00061">
        <ele>387</ele>
        <time>2024-08-03T13:25:03Z</time>
      </trkpt>
      <trkpt lat="41.69827" lon="9.0006">
        <ele>386.8</ele>
        <time>2024-08-03T13:25:15Z</time>
      </trkpt>
      <trkpt lat="41.69827" lon="9.00061">
        <ele>386</ele>
        <time>2024-08-03T13:25:31Z</time>
      </trkpt>
      <trkpt lat="41.69827" lon="9.00061">
        <ele>386</ele>
        <time>2024-08-03T13:25:32Z</time>
      </trkpt>
      <trkpt lat="41.69828" lon="9.00061">
        <ele>387</ele>
        <time>2024-08-03T13:25:39Z</time>
      </trkpt>
      <trkpt lat="41.69828" lon="9.0006">
        <ele>387</ele>
        <time>2024-08-03T13:25:48Z</time>
      </trkpt>
      <trkpt lat="41.69827" lon="9.00063">
        <ele>387</ele>
        <time>2024-08-03T13:26:06Z</time>
      </trkpt>
      <trkpt lat="41.69823" lon="9.00062">
        <ele>386.4</ele>
        <time>2024-08-03T13:26:16Z</time>
      </trkpt>
      <trkpt lat="41.6982" lon="9.00061">
        <ele>386.6</ele>
        <time>2024-08-03T13:26:19Z</time>
      </trkpt>
      <trkpt lat="41.69816" lon="9.00061">
        <ele>386</ele>
        <time>2024-08-03T13:26:26Z</time>
      </trkpt>
      <trkpt lat="41.69812" lon="9.00056">
        <ele>385.6</ele>
        <time>2024-08-03T13:26:33Z</time>
      </trkpt>
      <trkpt lat="41.69811" lon="9.00054">
        <ele>385.6</ele>
        <time>2024-08-03T13:26:35Z</time>
      </trkpt>
      <trkpt lat="41.69806" lon="9.0005">
        <ele>385.4</ele>
        <time>2024-08-03T13:26:41Z</time>
      </trkpt>
      <trkpt lat="41.69799" lon="9.00049">
        <ele>385.2</ele>
        <time>2024-08-03T13:26:49Z</time>
      </trkpt>
      <trkpt lat="41.69792" lon="9.00046">
        <ele>385</ele>
        <time>2024-08-03T13:26:55Z</time>
      </trkpt>
      <trkpt lat="41.69789" lon="9.00046">
        <ele>384.6</ele>
        <time>2024-08-03T13:27:01Z</time>
      </trkpt>
      <trkpt lat="41.69788" lon="9.00048">
        <ele>384.6</ele>
        <time>2024-08-03T13:27:03Z</time>
      </trkpt>
      <trkpt lat="41.69782" lon="9.00059">
        <ele>385.8</ele>
        <time>2024-08-03T13:27:16Z</time>
      </trkpt>
      <trkpt lat="41.69781" lon="9.00063">
        <ele>386</ele>
        <time>2024-08-03T13:27:20Z</time>
      </trkpt>
      <trkpt lat="41.69783" lon="9.00065">
        <ele>386.4</ele>
        <time>2024-08-03T13:27:27Z</time>
      </trkpt>
      <trkpt lat="41.69781" lon="9.00071">
        <ele>386.6</ele>
        <time>2024-08-03T13:27:40Z</time>
      </trkpt>
      <trkpt lat="41.6978" lon="9.00075">
        <ele>387</ele>
        <time>2024-08-03T13:27:51Z</time>
      </trkpt>
      <trkpt lat="41.69779" lon="9.00076">
        <ele>387.2</ele>
        <time>2024-08-03T13:27:53Z</time>
      </trkpt>
      <trkpt lat="41.6978" lon="9.00079">
        <ele>388.2</ele>
        <time>2024-08-03T13:27:58Z</time>
      </trkpt>
      <trkpt lat="41.69779" lon="9.00083">
        <ele>389.2</ele>
        <time>2024-08-03T13:28:04Z</time>
      </trkpt>
      <trkpt lat="41.69777" lon="9.00086">
        <ele>389.6</ele>
        <time>2024-08-03T13:28:08Z</time>
      </trkpt>
      <trkpt lat="41.69776" lon="9.00088">
        <ele>390.2</ele>
        <time>2024-08-03T13:28:12Z</time>
      </trkpt>
      <trkpt lat="41.69776" lon="9.00094">
        <ele>391.2</ele>
        <time>2024-08-03T13:28:20Z</time>
      </trkpt>
      <trkpt lat="41.69777" lon="9.00094">
        <ele>391.6</ele>
        <time>2024-08-03T13:28:22Z</time>
      </trkpt>
      <trkpt lat="41.69781" lon="9.00093">
        <ele>392</ele>
        <time>2024-08-03T13:28:33Z</time>
      </trkpt>
      <trkpt lat="41.69781" lon="9.0009">
        <ele>392.2</ele>
        <time>2024-08-03T13:28:44Z</time>
      </trkpt>
      <trkpt lat="41.69776" lon="9.00087">
        <ele>392.2</ele>
        <time>2024-08-03T13:28:51Z</time>
      </trkpt>
      <trkpt lat="41.69772" lon="9.00086">
        <ele>392.2</ele>
        <time>2024-08-03T13:28:57Z</time>
      </trkpt>
      <trkpt lat="41.6977" lon="9.00088">
        <ele>392.6</ele>
        <time>2024-08-03T13:29:02Z</time>
      </trkpt>
      <trkpt lat="41.69768" lon="9.00089">
        <ele>392.8</ele>
        <time>2024-08-03T13:29:11Z</time>
      </trkpt>
      <trkpt lat="41.69767" lon="9.00094">
        <ele>392.2</ele>
        <time>2024-08-03T13:29:28Z</time>
      </trkpt>
      <trkpt lat="41.69757" lon="9.00106">
        <ele>392</ele>
        <time>2024-08-03T13:29:40Z</time>
      </trkpt>
      <trkpt lat="41.69757" lon="9.00108">
        <ele>392.2</ele>
        <time>2024-08-03T13:29:51Z</time>
      </trkpt>
      <trkpt lat="41.69756" lon="9.00113">
        <ele>392.2</ele>
        <time>2024-08-03T13:30:02Z</time>
      </trkpt>
      <trkpt lat="41.69761" lon="9.00115">
        <ele>392.4</ele>
        <time>2024-08-03T13:30:08Z</time>
      </trkpt>
      <trkpt lat="41.69763" lon="9.00116">
        <ele>392.6</ele>
        <time>2024-08-03T13:30:10Z</time>
      </trkpt>
      <trkpt lat="41.69765" lon="9.00115">
        <ele>392.8</ele>
        <time>2024-08-03T13:30:12Z</time>
      </trkpt>
      <trkpt lat="41.69766" lon="9.00116">
        <ele>393.2</ele>
        <time>2024-08-03T13:30:14Z</time>
      </trkpt>
      <trkpt lat="41.69766" lon="9.00117">
        <ele>393.2</ele>
        <time>2024-08-03T13:30:15Z</time>
      </trkpt>
      <trkpt lat="41.69767" lon="9.00117">
        <ele>393.4</ele>
        <time>2024-08-03T13:30:16Z</time>
      </trkpt>
      <trkpt lat="41.69768" lon="9.00119">
        <ele>393.6</ele>
        <time>2024-08-03T13:30:18Z</time>
      </trkpt>
      <trkpt lat="41.69767" lon="9.00122">
        <ele>394.2</ele>
        <time>2024-08-03T13:30:21Z</time>
      </trkpt>
      <trkpt lat="41.69767" lon="9.00124">
        <ele>394.6</ele>
        <time>2024-08-03T13:30:23Z</time>
      </trkpt>
      <trkpt lat="41.69767" lon="9.00126">
        <ele>395</ele>
        <time>2024-08-03T13:30:25Z</time>
      </trkpt>
      <trkpt lat="41.69768" lon="9.0013">
        <ele>395.6</ele>
        <time>2024-08-03T13:30:28Z</time>
      </trkpt>
      <trkpt lat="41.69768" lon="9.0013">
        <ele>395.8</ele>
        <time>2024-08-03T13:30:29Z</time>
      </trkpt>
      <trkpt lat="41.69771" lon="9.00135">
        <ele>396.8</ele>
        <time>2024-08-03T13:30:36Z</time>
      </trkpt>
      <trkpt lat="41.69772" lon="9.00138">
        <ele>397.6</ele>
        <time>2024-08-03T13:30:42Z</time>
      </trkpt>
      <trkpt lat="41.69772" lon="9.00139">
        <ele>398</ele>
        <time>2024-08-03T13:30:44Z</time>
      </trkpt>
      <trkpt lat="41.69777" lon="9.00142">
        <ele>399</ele>
        <time>2024-08-03T13:30:56Z</time>
      </trkpt>
      <trkpt lat="41.69777" lon="9.00145">
        <ele>400</ele>
        <time>2024-08-03T13:31:11Z</time>
      </trkpt>
      <trkpt lat="41.69776" lon="9.00146">
        <ele>400.2</ele>
        <time>2024-08-03T13:31:13Z</time>
      </trkpt>
      <trkpt lat="41.69767" lon="9.00151">
        <ele>400.2</ele>
        <time>2024-08-03T13:31:27Z</time>
      </trkpt>
      <trkpt lat="41.69759" lon="9.00164">
        <ele>400</ele>
        <time>2024-08-03T13:31:40Z</time>
      </trkpt>
      <trkpt lat="41.69758" lon="9.00167">
        <ele>400.2</ele>
        <time>2024-08-03T13:31:43Z</time>
      </trkpt>
      <trkpt lat="41.69757" lon="9.00168">
        <ele>400.2</ele>
        <time>2024-08-03T13:31:44Z</time>
      </trkpt>
      <trkpt lat="41.69756" lon="9.00169">
        <ele>400.2</ele>
        <time>2024-08-03T13:31:45Z</time>
      </trkpt>
      <trkpt lat="41.69756" lon="9.0017">
        <ele>400.2</ele>
        <time>2024-08-03T13:31:47Z</time>
      </trkpt>
      <trkpt lat="41.69754" lon="9.00174">
        <ele>399.8</ele>
        <time>2024-08-03T13:31:51Z</time>
      </trkpt>
      <trkpt lat="41.69754" lon="9.00175">
        <ele>399.8</ele>
        <time>2024-08-03T13:31:53Z</time>
      </trkpt>
      <trkpt lat="41.6975" lon="9.00179">
        <ele>399.8</ele>
        <time>2024-08-03T13:32:00Z</time>
      </trkpt>
      <trkpt lat="41.69748" lon="9.00179">
        <ele>399.6</ele>
        <time>2024-08-03T13:32:02Z</time>
      </trkpt>
      <trkpt lat="41.69744" lon="9.00178">
        <ele>400</ele>
        <time>2024-08-03T13:32:11Z</time>
      </trkpt>
      <trkpt lat="41.69741" lon="9.00179">
        <ele>399.8</ele>
        <time>2024-08-03T13:32:17Z</time>
      </trkpt>
      <trkpt lat="41.69739" lon="9.00178">
        <ele>399.4</ele>
        <time>2024-08-03T13:32:25Z</time>
      </trkpt>
      <trkpt lat="41.69736" lon="9.0018">
        <ele>399.4</ele>
        <time>2024-08-03T13:32:42Z</time>
      </trkpt>
      <trkpt lat="41.69729" lon="9.00186">
        <ele>399.2</ele>
        <time>2024-08-03T13:32:56Z</time>
      </trkpt>
      <trkpt lat="41.69719" lon="9.00186">
        <ele>399.2</ele>
        <time>2024-08-03T13:33:08Z</time>
      </trkpt>
      <trkpt lat="41.69714" lon="9.00184">
        <ele>399</ele>
        <time>2024-08-03T13:33:16Z</time>
      </trkpt>
      <trkpt lat="41.69706" lon="9.00181">
        <ele>399</ele>
        <time>2024-08-03T13:33:24Z</time>
      </trkpt>
      <trkpt lat="41.69705" lon="9.00181">
        <ele>398.8</ele>
        <time>2024-08-03T13:33:25Z</time>
      </trkpt>
      <trkpt lat="41.69704" lon="9.00181">
        <ele>398.8</ele>
        <time>2024-08-03T13:33:27Z</time>
      </trkpt>
      <trkpt lat="41.69702" lon="9.00181">
        <ele>398.8</ele>
        <time>2024-08-03T13:33:29Z</time>
      </trkpt>
      <trkpt lat="41.697" lon="9.0018">
        <ele>398.8</ele>
        <time>2024-08-03T13:33:31Z</time>
      </trkpt>
      <trkpt lat="41.69696" lon="9.00179">
        <ele>398.8</ele>
        <time>2024-08-03T13:33:35Z</time>
      </trkpt>
      <trkpt lat="41.69695" lon="9.00179">
        <ele>398.8</ele>
        <time>2024-08-03T13:33:36Z</time>
      </trkpt>
      <trkpt lat="41.69694" lon="9.00179">
        <ele>398.8</ele>
        <time>2024-08-03T13:33:38Z</time>
      </trkpt>
      <trkpt lat="41.69692" lon="9.00179">
        <ele>398.8</ele>
        <time>2024-08-03T13:33:40Z</time>
      </trkpt>
      <trkpt lat="41.69692" lon="9.00179">
        <ele>398.8</ele>
        <time>2024-08-03T13:33:41Z</time>
      </trkpt>
      <trkpt lat="41.6969" lon="9.00178">
        <ele>398.6</ele>
        <time>2024-08-03T13:33:43Z</time>
      </trkpt>
      <trkpt lat="41.69689" lon="9.00178">
        <ele>398.4</ele>
        <time>2024-08-03T13:33:45Z</time>
      </trkpt>
      <trkpt lat="41.69684" lon="9.00177">
        <ele>398.4</ele>
        <time>2024-08-03T13:33:52Z</time>
      </trkpt>
      <trkpt lat="41.69671" lon="9.00174">
        <ele>398.4</ele>
        <time>2024-08-03T13:34:06Z</time>
      </trkpt>
      <trkpt lat="41.69664" lon="9.00172">
        <ele>398</ele>
        <time>2024-08-03T13:34:15Z</time>
      </trkpt>
      <trkpt lat="41.6966" lon="9.00172">
        <ele>398</ele>
        <time>2024-08-03T13:34:19Z</time>
      </trkpt>
      <trkpt lat="41.69656" lon="9.00174">
        <ele>398</ele>
        <time>2024-08-03T13:34:31Z</time>
      </trkpt>
      <trkpt lat="41.69657" lon="9.00177">
        <ele>397.4</ele>
        <time>2024-08-03T13:34:43Z</time>
      </trkpt>
      <trkpt lat="41.69657" lon="9.00177">
        <ele>397.4</ele>
        <time>2024-08-03T13:34:45Z</time>
      </trkpt>
      <trkpt lat="41.69657" lon="9.00177">
        <ele>470</ele>
        <time>2024-08-03T13:42:24Z</time>
      </trkpt>
      <trkpt lat="41.70658" lon="9.00362">
        <ele>469</ele>
        <time>2024-08-03T13:42:31Z</time>
      </trkpt>
      <trkpt lat="41.70657" lon="9.00359">
        <ele>468.8</ele>
        <time>2024-08-03T13:42:44Z</time>
      </trkpt>
      <trkpt lat="41.70657" lon="9.00359">
        <ele>468.8</ele>
        <time>2024-08-03T13:42:51Z</time>
      </trkpt>
      <trkpt lat="41.70657" lon="9.00359">
        <ele>468.4</ele>
        <time>2024-08-03T13:43:01Z</time>
      </trkpt>
      <trkpt lat="41.70655" lon="9.00359">
        <ele>468.8</ele>
        <time>2024-08-03T13:43:15Z</time>
      </trkpt>
      <trkpt lat="41.7065" lon="9.00358">
        <ele>468.4</ele>
        <time>2024-08-03T13:43:23Z</time>
      </trkpt>
      <trkpt lat="41.70648" lon="9.00357">
        <ele>468.4</ele>
        <time>2024-08-03T13:43:26Z</time>
      </trkpt>
      <trkpt lat="41.70645" lon="9.00354">
        <ele>468.2</ele>
        <time>2024-08-03T13:43:35Z</time>
      </trkpt>
      <trkpt lat="41.70644" lon="9.00355">
        <ele>467.8</ele>
        <time>2024-08-03T13:43:46Z</time>
      </trkpt>
      <trkpt lat="41.70644" lon="9.00355">
        <ele>465.8</ele>
        <time>2024-08-03T13:43:47Z</time>
      </trkpt>
      <trkpt lat="41.70644" lon="9.00355">
        <ele>464</ele>
        <time>2024-08-03T13:43:48Z</time>
      </trkpt>
      <trkpt lat="41.70644" lon="9.00355">
        <ele>462.6</ele>
        <time>2024-08-03T13:43:49Z</time>
      </trkpt>
      <trkpt lat="41.70643" lon="9.00356">
        <ele>461.4</ele>
        <time>2024-08-03T13:43:52Z</time>
      </trkpt>
      <trkpt lat="41.70643" lon="9.00356">
        <ele>465.2</ele>
        <time>2024-08-03T13:43:53Z</time>
      </trkpt>
      <trkpt lat="41.70642" lon="9.00357">
        <ele>466.6</ele>
        <time>2024-08-03T13:43:54Z</time>
      </trkpt>
      <trkpt lat="41.70641" lon="9.00358">
        <ele>467.8</ele>
        <time>2024-08-03T13:43:56Z</time>
      </trkpt>
      <trkpt lat="41.70639" lon="9.0036">
        <ele>468</ele>
        <time>2024-08-03T13:43:58Z</time>
      </trkpt>
      <trkpt lat="41.70635" lon="9.00357">
        <ele>467.4</ele>
        <time>2024-08-03T13:44:06Z</time>
      </trkpt>
      <trkpt lat="41.70634" lon="9.00356">
        <ele>467.6</ele>
        <time>2024-08-03T13:44:16Z</time>
      </trkpt>
      <trkpt lat="41.70634" lon="9.00355">
        <ele>467.4</ele>
        <time>2024-08-03T13:44:31Z</time>
      </trkpt>
      <trkpt lat="41.70634" lon="9.00356">
        <ele>467.8</ele>
        <time>2024-08-03T13:44:51Z</time>
      </trkpt>
      <trkpt lat="41.70634" lon="9.00354">
        <ele>467.6</ele>
        <time>2024-08-03T13:45:02Z</time>
      </trkpt>
      <trkpt lat="41.70633" lon="9.00351">
        <ele>467.2</ele>
        <time>2024-08-03T13:45:16Z</time>
      </trkpt>
      <trkpt lat="41.70635" lon="9.00352">
        <ele>468.6</ele>
        <time>2024-08-03T13:45:28Z</time>
      </trkpt>
      <trkpt lat="41.70635" lon="9.00352">
        <ele>468.8</ele>
        <time>2024-08-03T13:45:29Z</time>
      </trkpt>
      <trkpt lat="41.70634" lon="9.00352">
        <ele>468.6</ele>
        <time>2024-08-03T13:45:44Z</time>
      </trkpt>
      <trkpt lat="41.70634" lon="9.00354">
        <ele>467.6</ele>
        <time>2024-08-03T13:45:50Z</time>
      </trkpt>
      <trkpt lat="41.70636" lon="9.00359">
        <ele>467.6</ele>
        <time>2024-08-03T13:45:55Z</time>
      </trkpt>
      <trkpt lat="41.70639" lon="9.00358">
        <ele>467.4</ele>
        <time>2024-08-03T13:46:04Z</time>
      </trkpt>
      <trkpt lat="41.70642" lon="9.00352">
        <ele>467.6</ele>
        <time>2024-08-03T13:46:10Z</time>
      </trkpt>
      <trkpt lat="41.70641" lon="9.00353">
        <ele>467.6</ele>
        <time>2024-08-03T13:46:16Z</time>
      </trkpt>
      <trkpt lat="41.70638" lon="9.00359">
        <ele>467.4</ele>
        <time>2024-08-03T13:46:24Z</time>
      </trkpt>
      <trkpt lat="41.70636" lon="9.00362">
        <ele>467.6</ele>
        <time>2024-08-03T13:46:27Z</time>
      </trkpt>
      <trkpt lat="41.70636" lon="9.00363">
        <ele>467.6</ele>
        <time>2024-08-03T13:46:28Z</time>
      </trkpt>
      <trkpt lat="41.70634" lon="9.00363">
        <ele>467.4</ele>
        <time>2024-08-03T13:46:30Z</time>
      </trkpt>
      <trkpt lat="41.70633" lon="9.0036">
        <ele>467</ele>
        <time>2024-08-03T13:46:33Z</time>
      </trkpt>
      <trkpt lat="41.70631" lon="9.00357">
        <ele>466.6</ele>
        <time>2024-08-03T13:46:37Z</time>
      </trkpt>
      <trkpt lat="41.70626" lon="9.0035">
        <ele>465.2</ele>
        <time>2024-08-03T13:46:45Z</time>
      </trkpt>
      <trkpt lat="41.70623" lon="9.00344">
        <ele>464</ele>
        <time>2024-08-03T13:46:51Z</time>
      </trkpt>
      <trkpt lat="41.70622" lon="9.0034">
        <ele>463.4</ele>
        <time>2024-08-03T13:46:55Z</time>
      </trkpt>
      <trkpt lat="41.70621" lon="9.00337">
        <ele>463</ele>
        <time>2024-08-03T13:46:57Z</time>
      </trkpt>
      <trkpt lat="41.7062" lon="9.00335">
        <ele>462.8</ele>
        <time>2024-08-03T13:46:59Z</time>
      </trkpt>
      <trkpt lat="41.70618" lon="9.0033">
        <ele>462</ele>
        <time>2024-08-03T13:47:05Z</time>
      </trkpt>
      <trkpt lat="41.70616" lon="9.00323">
        <ele>460.8</ele>
        <time>2024-08-03T13:47:12Z</time>
      </trkpt>
      <trkpt lat="41.70616" lon="9.00322">
        <ele>460.6</ele>
        <time>2024-08-03T13:47:14Z</time>
      </trkpt>
      <trkpt lat="41.70615" lon="9.00316">
        <ele>459.8</ele>
        <time>2024-08-03T13:47:25Z</time>
      </trkpt>
      <trkpt lat="41.70615" lon="9.00315">
        <ele>459.8</ele>
        <time>2024-08-03T13:47:27Z</time>
      </trkpt>
      <trkpt lat="41.70611" lon="9.00303">
        <ele>459.8</ele>
        <time>2024-08-03T13:47:45Z</time>
      </trkpt>
      <trkpt lat="41.7061" lon="9.00297">
        <ele>460.2</ele>
        <time>2024-08-03T13:47:59Z</time>
      </trkpt>
      <trkpt lat="41.70608" lon="9.00295">
        <ele>460.4</ele>
        <time>2024-08-03T13:48:17Z</time>
      </trkpt>
      <trkpt lat="41.7061" lon="9.00294">
        <ele>459.6</ele>
        <time>2024-08-03T13:48:34Z</time>
      </trkpt>
      <trkpt lat="41.70617" lon="9.00295">
        <ele>459.4</ele>
        <time>2024-08-03T13:48:54Z</time>
      </trkpt>
      <trkpt lat="41.70615" lon="9.00294">
        <ele>459</ele>
        <time>2024-08-03T13:49:09Z</time>
      </trkpt>
      <trkpt lat="41.70611" lon="9.00292">
        <ele>459.2</ele>
        <time>2024-08-03T13:49:22Z</time>
      </trkpt>
      <trkpt lat="41.70612" lon="9.00294">
        <ele>459</ele>
        <time>2024-08-03T13:49:38Z</time>
      </trkpt>
      <trkpt lat="41.70611" lon="9.00283">
        <ele>459.4</ele>
        <time>2024-08-03T13:49:51Z</time>
      </trkpt>
      <trkpt lat="41.70611" lon="9.0028">
        <ele>459.4</ele>
        <time>2024-08-03T13:49:53Z</time>
      </trkpt>
      <trkpt lat="41.70614" lon="9.00277">
        <ele>459.4</ele>
        <time>2024-08-03T13:50:05Z</time>
      </trkpt>
      <trkpt lat="41.70621" lon="9.00279">
        <ele>459.4</ele>
        <time>2024-08-03T13:50:14Z</time>
      </trkpt>
      <trkpt lat="41.70623" lon="9.00279">
        <ele>459.6</ele>
        <time>2024-08-03T13:50:18Z</time>
      </trkpt>
      <trkpt lat="41.70623" lon="9.00279">
        <ele>459.6</ele>
        <time>2024-08-03T13:50:20Z</time>
      </trkpt>
      <trkpt lat="41.70621" lon="9.00281">
        <ele>459.8</ele>
        <time>2024-08-03T13:50:26Z</time>
      </trkpt>
      <trkpt lat="41.70618" lon="9.00287">
        <ele>459.4</ele>
        <time>2024-08-03T13:50:39Z</time>
      </trkpt>
      <trkpt lat="41.70613" lon="9.00291">
        <ele>459.4</ele>
        <time>2024-08-03T13:50:48Z</time>
      </trkpt>
      <trkpt lat="41.70612" lon="9.00293">
        <ele>459</ele>
        <time>2024-08-03T13:50:51Z</time>
      </trkpt>
      <trkpt lat="41.70612" lon="9.00295">
        <ele>458.8</ele>
        <time>2024-08-03T13:50:55Z</time>
      </trkpt>
      <trkpt lat="41.70612" lon="9.00295">
        <ele>458.8</ele>
        <time>2024-08-03T13:51:01Z</time>
      </trkpt>
      <trkpt lat="41.70613" lon="9.003">
        <ele>459</ele>
        <time>2024-08-03T13:51:15Z</time>
      </trkpt>
      <trkpt lat="41.70619" lon="9.00302">
        <ele>459</ele>
        <time>2024-08-03T13:51:28Z</time>
      </trkpt>
      <trkpt lat="41.70629" lon="9.00315">
        <ele>459.4</ele>
        <time>2024-08-03T13:51:59Z</time>
      </trkpt>
      <trkpt lat="41.70619" lon="9.00319">
        <ele>459.2</ele>
        <time>2024-08-03T13:52:07Z</time>
      </trkpt>
      <trkpt lat="41.70616" lon="9.00319">
        <ele>460.2</ele>
        <time>2024-08-03T13:52:10Z</time>
      </trkpt>
      <trkpt lat="41.70619" lon="9.00322">
        <ele>460</ele>
        <time>2024-08-03T13:52:21Z</time>
      </trkpt>
      <trkpt lat="41.70622" lon="9.00323">
        <ele>461.4</ele>
        <time>2024-08-03T13:52:30Z</time>
      </trkpt>
      <trkpt lat="41.70622" lon="9.00323">
        <ele>461.4</ele>
        <time>2024-08-03T13:52:31Z</time>
      </trkpt>
      <trkpt lat="41.70625" lon="9.00324">
        <ele>461.4</ele>
        <time>2024-08-03T13:52:42Z</time>
      </trkpt>
      <trkpt lat="41.70627" lon="9.00329">
        <ele>461.8</ele>
        <time>2024-08-03T13:52:50Z</time>
      </trkpt>
      <trkpt lat="41.70628" lon="9.00334">
        <ele>462.4</ele>
        <time>2024-08-03T13:52:56Z</time>
      </trkpt>
      <trkpt lat="41.70628" lon="9.00336">
        <ele>462.6</ele>
        <time>2024-08-03T13:52:58Z</time>
      </trkpt>
      <trkpt lat="41.70627" lon="9.00336">
        <ele>462.6</ele>
        <time>2024-08-03T13:53:03Z</time>
      </trkpt>
      <trkpt lat="41.70628" lon="9.00341">
        <ele>463</ele>
        <time>2024-08-03T13:53:10Z</time>
      </trkpt>
      <trkpt lat="41.70629" lon="9.00344">
        <ele>463.4</ele>
        <time>2024-08-03T13:53:13Z</time>
      </trkpt>
      <trkpt lat="41.70631" lon="9.00348">
        <ele>464.6</ele>
        <time>2024-08-03T13:53:19Z</time>
      </trkpt>
      <trkpt lat="41.70631" lon="9.0035">
        <ele>465</ele>
        <time>2024-08-03T13:53:22Z</time>
      </trkpt>
      <trkpt lat="41.70632" lon="9.00352">
        <ele>465.2</ele>
        <time>2024-08-03T13:53:24Z</time>
      </trkpt>
      <trkpt lat="41.70633" lon="9.00354">
        <ele>465.6</ele>
        <time>2024-08-03T13:53:26Z</time>
      </trkpt>
      <trkpt lat="41.70634" lon="9.00355">
        <ele>467.6</ele>
        <time>2024-08-03T13:53:27Z</time>
      </trkpt>
      <trkpt lat="41.70639" lon="9.00363">
        <ele>468.8</ele>
        <time>2024-08-03T13:53:37Z</time>
      </trkpt>
      <trkpt lat="41.70643" lon="9.00363">
        <ele>469.8</ele>
        <time>2024-08-03T13:53:46Z</time>
      </trkpt>
      <trkpt lat="41.70643" lon="9.00364">
        <ele>469.8</ele>
        <time>2024-08-03T13:53:47Z</time>
      </trkpt>
      <trkpt lat="41.70643" lon="9.00364">
        <ele>470</ele>
        <time>2024-08-03T13:53:48Z</time>
      </trkpt>
      <trkpt lat="41.70646" lon="9.00361">
        <ele>470.8</ele>
        <time>2024-08-03T13:54:00Z</time>
      </trkpt>
      <trkpt lat="41.70647" lon="9.00362">
        <ele>454.8</ele>
        <time>2024-08-03T13:54:17Z</time>
      </trkpt>
      <trkpt lat="41.70647" lon="9.00362">
        <ele>454.8</ele>
        <time>2024-08-03T13:54:18Z</time>
      </trkpt>
      <trkpt lat="41.70651" lon="9.00361">
        <ele>462.8</ele>
        <time>2024-08-03T13:54:27Z</time>
      </trkpt>
      <trkpt lat="41.70651" lon="9.00361">
        <ele>466.8</ele>
        <time>2024-08-03T13:54:28Z</time>
      </trkpt>
      <trkpt lat="41.70652" lon="9.0036">
        <ele>469</ele>
        <time>2024-08-03T13:54:29Z</time>
      </trkpt>
      <trkpt lat="41.70653" lon="9.0036">
        <ele>470</ele>
        <time>2024-08-03T13:54:30Z</time>
      </trkpt>
      <trkpt lat="41.70655" lon="9.0036">
        <ele>471</ele>
        <time>2024-08-03T13:54:33Z</time>
      </trkpt>
      <trkpt lat="41.70657" lon="9.0036">
        <ele>471.4</ele>
        <time>2024-08-03T13:54:36Z</time>
      </trkpt>
      <trkpt lat="41.70658" lon="9.0036">
        <ele>471.4</ele>
        <time>2024-08-03T13:54:38Z</time>
      </trkpt>
      <trkpt lat="41.70661" lon="9.00361">
        <ele>471.6</ele>
        <time>2024-08-03T13:54:41Z</time>
      </trkpt>
      <trkpt lat="41.70661" lon="9.00361">
        <ele>471.8</ele>
        <time>2024-08-03T13:54:42Z</time>
      </trkpt>
      <trkpt lat="41.70661" lon="9.00361">
        <ele>472.2</ele>
        <time>2024-08-03T13:54:43Z</time>
      </trkpt>
      <trkpt lat="41.70661" lon="9.00361">
        <ele>472.4</ele>
        <time>2024-08-03T13:54:44Z</time>
      </trkpt>
      <trkpt lat="41.70661" lon="9.0036">
        <ele>473.2</ele>
        <time>2024-08-03T13:54:49Z</time>
      </trkpt>
      <trkpt lat="41.70661" lon="9.0036">
        <ele>473.6</ele>
        <time>2024-08-03T13:54:53Z</time>
      </trkpt>
      <trkpt lat="41.70661" lon="9.0036">
        <ele>474.4</ele>
        <time>2024-08-03T13:55:04Z</time>
      </trkpt>
      <trkpt lat="41.70661" lon="9.0036">
        <ele>474.2</ele>
        <time>2024-08-03T13:55:08Z</time>
      </trkpt>
      <trkpt lat="41.70662" lon="9.00362">
        <ele>474.2</ele>
        <time>2024-08-03T13:55:23Z</time>
      </trkpt>
      <trkpt lat="41.68138" lon="8.9164">
        <ele>50.6</ele>
        <time>2024-08-03T15:02:26Z</time>
      </trkpt>
      <trkpt lat="41.6814" lon="8.91643">
        <ele>50</ele>
        <time>2024-08-03T15:02:34Z</time>
      </trkpt>
      <trkpt lat="41.68146" lon="8.9165">
        <ele>49.6</ele>
        <time>2024-08-03T15:02:44Z</time>
      </trkpt>
      <trkpt lat="41.68146" lon="8.9165">
        <ele>49.6</ele>
        <time>2024-08-03T15:02:45Z</time>
      </trkpt>
      <trkpt lat="41.68148" lon="8.91651">
        <ele>49.4</ele>
        <time>2024-08-03T15:02:53Z</time>
      </trkpt>
      <trkpt lat="41.68148" lon="8.9165">
        <ele>49.4</ele>
        <time>2024-08-03T15:02:56Z</time>
      </trkpt>
      <trkpt lat="41.68149" lon="8.91647">
        <ele>49.6</ele>
        <time>2024-08-03T15:03:11Z</time>
      </trkpt>
      <trkpt lat="41.6815" lon="8.91647">
        <ele>49.6</ele>
        <time>2024-08-03T15:03:26Z</time>
      </trkpt>
      <trkpt lat="41.68147" lon="8.91646">
        <ele>49.4</ele>
        <time>2024-08-03T15:03:39Z</time>
      </trkpt>
      <trkpt lat="41.68147" lon="8.91646">
        <ele>49.2</ele>
        <time>2024-08-03T15:03:42Z</time>
      </trkpt>
      <trkpt lat="41.68146" lon="8.91647">
        <ele>49.6</ele>
        <time>2024-08-03T15:03:56Z</time>
      </trkpt>
      <trkpt lat="41.68144" lon="8.91646">
        <ele>49.6</ele>
        <time>2024-08-03T15:04:13Z</time>
      </trkpt>
      <trkpt lat="41.68145" lon="8.91646">
        <ele>49.6</ele>
        <time>2024-08-03T15:04:31Z</time>
      </trkpt>
      <trkpt lat="41.68147" lon="8.91647">
        <ele>50</ele>
        <time>2024-08-03T15:04:49Z</time>
      </trkpt>
      <trkpt lat="41.68141" lon="8.91646">
        <ele>50.2</ele>
        <time>2024-08-03T15:05:11Z</time>
      </trkpt>
      <trkpt lat="41.68143" lon="8.91647">
        <ele>50</ele>
        <time>2024-08-03T15:05:25Z</time>
      </trkpt>
      <trkpt lat="41.68144" lon="8.91651">
        <ele>50.4</ele>
        <time>2024-08-03T15:05:38Z</time>
      </trkpt>
      <trkpt lat="41.68149" lon="8.91647">
        <ele>49.8</ele>
        <time>2024-08-03T15:05:50Z</time>
      </trkpt>
      <trkpt lat="41.68149" lon="8.91647">
        <ele>49</ele>
        <time>2024-08-03T15:06:02Z</time>
      </trkpt>
      <trkpt lat="41.68149" lon="8.91646">
        <ele>49.2</ele>
        <time>2024-08-03T15:06:18Z</time>
      </trkpt>
      <trkpt lat="41.68155" lon="8.9166">
        <ele>49.8</ele>
        <time>2024-08-03T15:06:34Z</time>
      </trkpt>
      <trkpt lat="41.68152" lon="8.91651">
        <ele>49.6</ele>
        <time>2024-08-03T15:06:42Z</time>
      </trkpt>
      <trkpt lat="41.68151" lon="8.9165">
        <ele>49.6</ele>
        <time>2024-08-03T15:06:43Z</time>
      </trkpt>
      <trkpt lat="41.68149" lon="8.91649">
        <ele>49.6</ele>
        <time>2024-08-03T15:06:45Z</time>
      </trkpt>
      <trkpt lat="41.68146" lon="8.91648">
        <ele>49.8</ele>
        <time>2024-08-03T15:06:50Z</time>
      </trkpt>
      <trkpt lat="41.68146" lon="8.91648">
        <ele>50</ele>
        <time>2024-08-03T15:06:54Z</time>
      </trkpt>
      <trkpt lat="41.68148" lon="8.9165">
        <ele>50.4</ele>
        <time>2024-08-03T15:07:11Z</time>
      </trkpt>
      <trkpt lat="41.68149" lon="8.91651">
        <ele>50</ele>
        <time>2024-08-03T15:07:23Z</time>
      </trkpt>
      <trkpt lat="41.68149" lon="8.91651">
        <ele>50.2</ele>
        <time>2024-08-03T15:07:36Z</time>
      </trkpt>
      <trkpt lat="41.68143" lon="8.9164">
        <ele>49.4</ele>
        <time>2024-08-03T15:07:47Z</time>
      </trkpt>
      <trkpt lat="41.68143" lon="8.9164">
        <ele>49.4</ele>
        <time>2024-08-03T15:07:48Z</time>
      </trkpt>
      <trkpt lat="41.68142" lon="8.9164">
        <ele>49.2</ele>
        <time>2024-08-03T15:07:50Z</time>
      </trkpt>
      <trkpt lat="41.68143" lon="8.91638">
        <ele>50</ele>
        <time>2024-08-03T15:07:57Z</time>
      </trkpt>
      <trkpt lat="41.68143" lon="8.91637">
        <ele>50</ele>
        <time>2024-08-03T15:08:15Z</time>
      </trkpt>
      <trkpt lat="41.68141" lon="8.91631">
        <ele>50.6</ele>
        <time>2024-08-03T15:08:25Z</time>
      </trkpt>
      <trkpt lat="41.68141" lon="8.9163">
        <ele>50.6</ele>
        <time>2024-08-03T15:08:26Z</time>
      </trkpt>
      <trkpt lat="41.68143" lon="8.91634">
        <ele>50.8</ele>
        <time>2024-08-03T15:08:44Z</time>
      </trkpt>
      <trkpt lat="41.68145" lon="8.91637">
        <ele>50.8</ele>
        <time>2024-08-03T15:08:54Z</time>
      </trkpt>
      <trkpt lat="41.68146" lon="8.91635">
        <ele>50.6</ele>
        <time>2024-08-03T15:09:10Z</time>
      </trkpt>
      <trkpt lat="41.68144" lon="8.91634">
        <ele>50.2</ele>
        <time>2024-08-03T15:09:27Z</time>
      </trkpt>
      <trkpt lat="41.68139" lon="8.91626">
        <ele>50.6</ele>
        <time>2024-08-03T15:09:34Z</time>
      </trkpt>
      <trkpt lat="41.68128" lon="8.91613">
        <ele>50.8</ele>
        <time>2024-08-03T15:09:48Z</time>
      </trkpt>
      <trkpt lat="41.68124" lon="8.91601">
        <ele>51.2</ele>
        <time>2024-08-03T15:10:01Z</time>
      </trkpt>
      <trkpt lat="41.68126" lon="8.91594">
        <ele>51.6</ele>
        <time>2024-08-03T15:10:08Z</time>
      </trkpt>
      <trkpt lat="41.68127" lon="8.91592">
        <ele>51.4</ele>
        <time>2024-08-03T15:10:12Z</time>
      </trkpt>
      <trkpt lat="41.68127" lon="8.91591">
        <ele>51.4</ele>
        <time>2024-08-03T15:10:15Z</time>
      </trkpt>
      <trkpt lat="41.68126" lon="8.91599">
        <ele>51.8</ele>
        <time>2024-08-03T15:10:25Z</time>
      </trkpt>
      <trkpt lat="41.68123" lon="8.91603">
        <ele>52</ele>
        <time>2024-08-03T15:10:34Z</time>
      </trkpt>
      <trkpt lat="41.6812" lon="8.91603">
        <ele>51.8</ele>
        <time>2024-08-03T15:10:38Z</time>
      </trkpt>
      <trkpt lat="41.68114" lon="8.91597">
        <ele>51.4</ele>
        <time>2024-08-03T15:10:45Z</time>
      </trkpt>
      <trkpt lat="41.68096" lon="8.91588">
        <ele>51.2</ele>
        <time>2024-08-03T15:10:59Z</time>
      </trkpt>
      <trkpt lat="41.68094" lon="8.91586">
        <ele>51.2</ele>
        <time>2024-08-03T15:11:01Z</time>
      </trkpt>
      <trkpt lat="41.68076" lon="8.91581">
        <ele>51.4</ele>
        <time>2024-08-03T15:11:16Z</time>
      </trkpt>
      <trkpt lat="41.68075" lon="8.9158">
        <ele>51.2</ele>
        <time>2024-08-03T15:11:17Z</time>
      </trkpt>
      <trkpt lat="41.68058" lon="8.91568">
        <ele>50.8</ele>
        <time>2024-08-03T15:11:32Z</time>
      </trkpt>
      <trkpt lat="41.68047" lon="8.91554">
        <ele>50.4</ele>
        <time>2024-08-03T15:11:44Z</time>
      </trkpt>
      <trkpt lat="41.68046" lon="8.91543">
        <ele>50.2</ele>
        <time>2024-08-03T15:11:50Z</time>
      </trkpt>
      <trkpt lat="41.68038" lon="8.91531">
        <ele>49.4</ele>
        <time>2024-08-03T15:12:03Z</time>
      </trkpt>
      <trkpt lat="41.68037" lon="8.9153">
        <ele>49.2</ele>
        <time>2024-08-03T15:12:04Z</time>
      </trkpt>
      <trkpt lat="41.68037" lon="8.91531">
        <ele>49.2</ele>
        <time>2024-08-03T15:12:06Z</time>
      </trkpt>
      <trkpt lat="41.68036" lon="8.91529">
        <ele>49.8</ele>
        <time>2024-08-03T15:12:13Z</time>
      </trkpt>
      <trkpt lat="41.68032" lon="8.91521">
        <ele>48.8</ele>
        <time>2024-08-03T15:12:23Z</time>
      </trkpt>
      <trkpt lat="41.68027" lon="8.91498">
        <ele>48.6</ele>
        <time>2024-08-03T15:12:38Z</time>
      </trkpt>
      <trkpt lat="41.68032" lon="8.9149">
        <ele>48.6</ele>
        <time>2024-08-03T15:12:46Z</time>
      </trkpt>
      <trkpt lat="41.68032" lon="8.9149">
        <ele>48.6</ele>
        <time>2024-08-03T15:12:48Z</time>
      </trkpt>
      <trkpt lat="41.68033" lon="8.91489">
        <ele>49</ele>
        <time>2024-08-03T15:12:57Z</time>
      </trkpt>
      <trkpt lat="41.68028" lon="8.91489">
        <ele>48.2</ele>
        <time>2024-08-03T15:13:06Z</time>
      </trkpt>
      <trkpt lat="41.68027" lon="8.91483">
        <ele>48</ele>
        <time>2024-08-03T15:13:13Z</time>
      </trkpt>
      <trkpt lat="41.68028" lon="8.91484">
        <ele>47.8</ele>
        <time>2024-08-03T15:13:25Z</time>
      </trkpt>
      <trkpt lat="41.68027" lon="8.91484">
        <ele>47.6</ele>
        <time>2024-08-03T15:13:40Z</time>
      </trkpt>
      <trkpt lat="41.68027" lon="8.91484">
        <ele>47.4</ele>
        <time>2024-08-03T15:13:55Z</time>
      </trkpt>
      <trkpt lat="41.68023" lon="8.91483">
        <ele>47.4</ele>
        <time>2024-08-03T15:14:07Z</time>
      </trkpt>
      <trkpt lat="41.68022" lon="8.9148">
        <ele>47.2</ele>
        <time>2024-08-03T15:14:11Z</time>
      </trkpt>
      <trkpt lat="41.68023" lon="8.9148">
        <ele>47.2</ele>
        <time>2024-08-03T15:14:12Z</time>
      </trkpt>
      <trkpt lat="41.68024" lon="8.91479">
        <ele>47.2</ele>
        <time>2024-08-03T15:14:14Z</time>
      </trkpt>
      <trkpt lat="41.68025" lon="8.91479">
        <ele>47.2</ele>
        <time>2024-08-03T15:14:15Z</time>
      </trkpt>
      <trkpt lat="41.68026" lon="8.91478">
        <ele>47.2</ele>
        <time>2024-08-03T15:14:17Z</time>
      </trkpt>
      <trkpt lat="41.68026" lon="8.91478">
        <ele>47</ele>
        <time>2024-08-03T15:14:24Z</time>
      </trkpt>
      <trkpt lat="41.68027" lon="8.91478">
        <ele>46.8</ele>
        <time>2024-08-03T15:14:30Z</time>
      </trkpt>
      <trkpt lat="41.68025" lon="8.91478">
        <ele>47.8</ele>
        <time>2024-08-03T15:14:39Z</time>
      </trkpt>
      <trkpt lat="41.68018" lon="8.91476">
        <ele>46.8</ele>
        <time>2024-08-03T15:14:48Z</time>
      </trkpt>
      <trkpt lat="41.68017" lon="8.91475">
        <ele>46.4</ele>
        <time>2024-08-03T15:14:57Z</time>
      </trkpt>
      <trkpt lat="41.68015" lon="8.91475">
        <ele>47</ele>
        <time>2024-08-03T15:15:12Z</time>
      </trkpt>
      <trkpt lat="41.68016" lon="8.91474">
        <ele>47.6</ele>
        <time>2024-08-03T15:15:25Z</time>
      </trkpt>
      <trkpt lat="41.68016" lon="8.91474">
        <ele>47.2</ele>
        <time>2024-08-03T15:15:29Z</time>
      </trkpt>
      <trkpt lat="41.68015" lon="8.91475">
        <ele>46.6</ele>
        <time>2024-08-03T15:15:39Z</time>
      </trkpt>
      <trkpt lat="41.68015" lon="8.91475">
        <ele>46.8</ele>
        <time>2024-08-03T15:15:59Z</time>
      </trkpt>
      <trkpt lat="41.68019" lon="8.9148">
        <ele>47</ele>
        <time>2024-08-03T15:16:07Z</time>
      </trkpt>
      <trkpt lat="41.68023" lon="8.91482">
        <ele>47.2</ele>
        <time>2024-08-03T15:16:11Z</time>
      </trkpt>
      <trkpt lat="41.68028" lon="8.91485">
        <ele>48</ele>
        <time>2024-08-03T15:16:18Z</time>
      </trkpt>
      <trkpt lat="41.68028" lon="8.91485">
        <ele>48.4</ele>
        <time>2024-08-03T15:16:19Z</time>
      </trkpt>
      <trkpt lat="41.68028" lon="8.91484">
        <ele>49.2</ele>
        <time>2024-08-03T15:16:30Z</time>
      </trkpt>
      <trkpt lat="41.68028" lon="8.91484">
        <ele>46.6</ele>
        <time>2024-08-03T15:16:31Z</time>
      </trkpt>
      <trkpt lat="41.68027" lon="8.91484">
        <ele>45</ele>
        <time>2024-08-03T15:16:32Z</time>
      </trkpt>
      <trkpt lat="41.68029" lon="8.91485">
        <ele>44</ele>
        <time>2024-08-03T15:16:36Z</time>
      </trkpt>
      <trkpt lat="41.68029" lon="8.91486">
        <ele>47</ele>
        <time>2024-08-03T15:16:39Z</time>
      </trkpt>
      <trkpt lat="41.68029" lon="8.91489">
        <ele>48.6</ele>
        <time>2024-08-03T15:16:41Z</time>
      </trkpt>
      <trkpt lat="41.68029" lon="8.91491">
        <ele>49</ele>
        <time>2024-08-03T15:16:43Z</time>
      </trkpt>
      <trkpt lat="41.68032" lon="8.91504">
        <ele>48.8</ele>
        <time>2024-08-03T15:16:54Z</time>
      </trkpt>
      <trkpt lat="41.68033" lon="8.91504">
        <ele>48.8</ele>
        <time>2024-08-03T15:16:57Z</time>
      </trkpt>
      <trkpt lat="41.68033" lon="8.91504">
        <ele>49.4</ele>
        <time>2024-08-03T15:17:03Z</time>
      </trkpt>
      <trkpt lat="41.68033" lon="8.91504">
        <ele>49.8</ele>
        <time>2024-08-03T15:17:04Z</time>
      </trkpt>
      <trkpt lat="41.68031" lon="8.91508">
        <ele>49.4</ele>
        <time>2024-08-03T15:17:13Z</time>
      </trkpt>
      <trkpt lat="41.68032" lon="8.91514">
        <ele>49.4</ele>
        <time>2024-08-03T15:17:17Z</time>
      </trkpt>
      <trkpt lat="41.68034" lon="8.91522">
        <ele>48.8</ele>
        <time>2024-08-03T15:17:23Z</time>
      </trkpt>
      <trkpt lat="41.68042" lon="8.91542">
        <ele>49.8</ele>
        <time>2024-08-03T15:17:37Z</time>
      </trkpt>
      <trkpt lat="41.6805" lon="8.91553">
        <ele>50.8</ele>
        <time>2024-08-03T15:17:45Z</time>
      </trkpt>
      <trkpt lat="41.68059" lon="8.91558">
        <ele>51</ele>
        <time>2024-08-03T15:17:51Z</time>
      </trkpt>
      <trkpt lat="41.68075" lon="8.91564">
        <ele>51.6</ele>
        <time>2024-08-03T15:18:03Z</time>
      </trkpt>
      <trkpt lat="41.68086" lon="8.91569">
        <ele>51.8</ele>
        <time>2024-08-03T15:18:12Z</time>
      </trkpt>
      <trkpt lat="41.68086" lon="8.91569">
        <ele>51.8</ele>
        <time>2024-08-03T15:18:13Z</time>
      </trkpt>
      <trkpt lat="41.68095" lon="8.91576">
        <ele>52.6</ele>
        <time>2024-08-03T15:18:20Z</time>
      </trkpt>
      <trkpt lat="41.68103" lon="8.91586">
        <ele>52.6</ele>
        <time>2024-08-03T15:18:28Z</time>
      </trkpt>
      <trkpt lat="41.68112" lon="8.91591">
        <ele>52.8</ele>
        <time>2024-08-03T15:18:36Z</time>
      </trkpt>
      <trkpt lat="41.68119" lon="8.91597">
        <ele>53.6</ele>
        <time>2024-08-03T15:18:43Z</time>
      </trkpt>
      <trkpt lat="41.6812" lon="8.91602">
        <ele>53.8</ele>
        <time>2024-08-03T15:18:46Z</time>
      </trkpt>
      <trkpt lat="41.6812" lon="8.91602">
        <ele>53.6</ele>
        <time>2024-08-03T15:18:48Z</time>
      </trkpt>
      <trkpt lat="41.68121" lon="8.91602">
        <ele>53.4</ele>
        <time>2024-08-03T15:18:50Z</time>
      </trkpt>
      <trkpt lat="41.68127" lon="8.91608">
        <ele>53.8</ele>
        <time>2024-08-03T15:19:00Z</time>
      </trkpt>
      <trkpt lat="41.68132" lon="8.9161">
        <ele>53.6</ele>
        <time>2024-08-03T15:19:10Z</time>
      </trkpt>
      <trkpt lat="41.68132" lon="8.91611">
        <ele>53.6</ele>
        <time>2024-08-03T15:19:11Z</time>
      </trkpt>
      <trkpt lat="41.68134" lon="8.91615">
        <ele>53.4</ele>
        <time>2024-08-03T15:19:21Z</time>
      </trkpt>
      <trkpt lat="41.68135" lon="8.91615">
        <ele>54.4</ele>
        <time>2024-08-03T15:19:33Z</time>
      </trkpt>
      <trkpt lat="41.68135" lon="8.91621">
        <ele>53.6</ele>
        <time>2024-08-03T15:19:45Z</time>
      </trkpt>
      <trkpt lat="41.68141" lon="8.91629">
        <ele>53.4</ele>
        <time>2024-08-03T15:19:56Z</time>
      </trkpt>
      <trkpt lat="41.68143" lon="8.9163">
        <ele>53.4</ele>
        <time>2024-08-03T15:19:59Z</time>
      </trkpt>
      <trkpt lat="41.68143" lon="8.9163">
        <ele>53.4</ele>
        <time>2024-08-03T15:20:00Z</time>
      </trkpt>
      <trkpt lat="41.68145" lon="8.91633">
        <ele>53</ele>
        <time>2024-08-03T15:20:09Z</time>
      </trkpt>
      <trkpt lat="41.68146" lon="8.91632">
        <ele>53.4</ele>
        <time>2024-08-03T15:20:23Z</time>
      </trkpt>
      <trkpt lat="41.68146" lon="8.9163">
        <ele>53.4</ele>
        <time>2024-08-03T15:20:28Z</time>
      </trkpt>
    </trkseg>
  </trk>
</gpx>